Time;durP1;ratioP1;P1;durP2;ratioP2;P2;SDS_P1;SDS_P2;PMS_P1;PMS_P2;Temp;Humidity;BMP_temperature;BMP_pressure;BME280_temperature;BME280_humidity;BME280_pressure;Samples;Min_cycle;Max_cycle;Signal;HPM_P1;HPM_P2
2022/04/01 00:00:29;;;;;;;5.73;4.60;;;;;;;;;;4949937;29;20210;-58
2022/04/01 00:02:56;;;;;;;7.27;5.27;;;;;;;;;;4951086;29;20203;-58
2022/04/01 00:05:23;;;;;;;5.53;4.53;;;;;;;;;;4948848;29;20673;-58
2022/04/01 00:07:50;;;;;;;8.90;5.43;;;;;;;;;;4949014;29;20262;-58
2022/04/01 00:10:17;;;;;;;3.30;3.10;;;;;;;;;;4945452;29;20204;-58
2022/04/01 00:12:47;;;;;;;4.17;3.20;;;;;;;;;;4949602;29;20219;-57
2022/04/01 00:15:15;;;;;;;4.57;4.10;;;;;;;;;;4948851;29;20650;-58
2022/04/01 00:17:42;;;;;;;3.90;3.60;;;;;;;;;;4950326;29;20215;-57
2022/04/01 00:20:10;;;;;;;3.47;3.00;;;;;;;;;;4948341;29;20212;-58
2022/04/01 00:22:37;;;;;;;4.83;3.93;;;;;;;;;;4949745;29;20318;-58
2022/04/01 00:25:05;;;;;;;5.53;4.20;;;;;;;;;;4945522;29;20231;-58
2022/04/01 00:27:32;;;;;;;5.67;3.83;;;;;;;;;;4946937;29;20246;-58
2022/04/01 00:30:00;;;;;;;8.37;5.47;;;;;;;;;;4948847;29;20261;-58
2022/04/01 00:32:27;;;;;;;5.87;4.90;;;;;;;;;;4948159;29;20215;-57
2022/04/01 00:34:54;;;;;;;6.73;4.67;;;;;;;;;;4948330;29;20286;-58
2022/04/01 00:37:21;;;;;;;7.87;4.90;;;;;;;;;;4946843;29;20209;-58
2022/04/01 00:39:48;;;;;;;5.80;4.57;;;;;;;;;;4948939;29;20732;-58
2022/04/01 00:42:15;;;;;;;7.00;5.03;;;;;;;;;;4946724;29;20262;-58
2022/04/01 00:44:43;;;;;;;3.53;3.23;;;;;;;;;;4951137;29;20218;-58
2022/04/01 00:47:13;;;;;;;1.97;1.87;;;;;;;;;;4947745;29;20211;-57
2022/04/01 00:49:40;;;;;;;6.30;4.77;;;;;;;;;;4950461;29;20290;-58
2022/04/01 00:52:08;;;;;;;4.17;3.63;;;;;;;;;;4949741;29;20270;-58
2022/04/01 00:54:36;;;;;;;7.47;5.53;;;;;;;;;;4949620;29;20629;-58
2022/04/01 00:57:03;;;;;;;5.70;4.20;;;;;;;;;;4947798;29;20772;-58
2022/04/01 00:59:30;;;;;;;5.47;4.53;;;;;;;;;;4947899;29;20766;-58
2022/04/01 01:01:57;;;;;;;4.77;4.27;;;;;;;;;;4946020;29;20444;-58
2022/04/01 01:04:26;;;;;;;5.57;3.73;;;;;;;;;;4946933;28;20262;-58
2022/04/01 01:06:54;;;;;;;5.10;4.37;;;;;;;;;;4946596;29;20656;-58
2022/04/01 01:09:21;;;;;;;4.33;3.43;;;;;;;;;;4948748;29;20223;-58
2022/04/01 01:11:52;;;;;;;4.83;4.10;;;;;;;;;;4948057;29;20281;-58
2022/04/01 01:14:24;;;;;;;6.63;4.63;;;;;;;;;;4948370;29;20206;-58
2022/04/01 01:16:51;;;;;;;10.17;6.30;;;;;;;;;;4948837;29;20733;-58
2022/04/01 01:19:19;;;;;;;7.80;5.30;;;;;;;;;;4947844;29;20203;-58
2022/04/01 01:21:49;;;;;;;7.93;5.50;;;;;;;;;;4946920;29;20234;-58
2022/04/01 01:24:17;;;;;;;5.67;4.63;;;;;;;;;;4945433;29;20249;-58
2022/04/01 01:26:53;;;;;;;5.77;4.57;;;;;;;;;;4950970;29;20239;-58
2022/04/01 01:29:23;;;;;;;7.33;5.03;;;;;;;;;;4948388;29;20760;-58
2022/04/01 01:31:50;;;;;;;4.77;4.37;;;;;;;;;;4947810;29;20213;-58
2022/04/01 01:34:17;;;;;;;8.30;5.47;;;;;;;;;;4948133;29;20214;-58
2022/04/01 01:36:44;;;;;;;10.10;5.83;;;;;;;;;;4948611;29;20290;-58
2022/04/01 01:39:12;;;;;;;6.67;4.90;;;;;;;;;;4946321;29;20207;-58
2022/04/01 01:44:22;;;;;;;7.53;5.13;;;;;;;;;;4946913;29;20609;-58
2022/04/01 01:46:50;;;;;;;7.57;4.93;;;;;;;;;;4947683;29;20207;-59
2022/04/01 01:49:20;;;;;;;7.20;5.20;;;;;;;;;;4947308;29;20233;-58
2022/04/01 01:57:22;;;;;;;5.17;3.53;;;;;;;;;;4941809;29;20217;-58
2022/04/01 01:59:51;;;;;;;5.87;4.73;;;;;;;;;;4944677;29;20196;-58
2022/04/01 02:02:18;;;;;;;5.33;4.10;;;;;;;;;;4950047;29;20211;-58
2022/04/01 02:04:45;;;;;;;3.33;2.43;;;;;;;;;;4946616;29;20249;-58
2022/04/01 02:07:13;;;;;;;4.63;4.10;;;;;;;;;;4930477;29;20212;-58
2022/04/01 02:09:43;;;;;;;6.17;4.13;;;;;;;;;;4933137;29;20235;-58
2022/04/01 02:12:10;;;;;;;5.37;3.33;;;;;;;;;;4946477;29;20679;-58
2022/04/01 02:14:37;;;;;;;6.77;4.67;;;;;;;;;;4937772;29;20633;-58
2022/04/01 02:17:06;;;;;;;3.00;2.63;;;;;;;;;;4950191;29;20214;-58
2022/04/01 02:19:33;;;;;;;4.93;4.10;;;;;;;;;;4954005;29;20207;-58
2022/04/01 02:22:01;;;;;;;5.63;4.20;;;;;;;;;;4942451;29;20219;-59
2022/04/01 02:24:28;;;;;;;4.97;4.07;;;;;;;;;;4952083;29;20626;-58
2022/04/01 02:26:55;;;;;;;4.07;3.77;;;;;;;;;;4950811;29;20254;-58
2022/04/01 02:29:23;;;;;;;4.57;4.03;;;;;;;;;;4946829;29;20238;-58
2022/04/01 02:31:51;;;;;;;4.67;3.83;;;;;;;;;;4941452;29;20239;-58
2022/04/01 02:34:19;;;;;;;3.23;3.03;;;;;;;;;;4949967;29;20244;-59
2022/04/01 02:36:46;;;;;;;3.60;3.10;;;;;;;;;;4946918;29;20211;-58
2022/04/01 02:39:13;;;;;;;2.83;1.83;;;;;;;;;;4952057;29;20204;-58
2022/04/01 02:41:41;;;;;;;5.20;4.33;;;;;;;;;;4941086;29;20217;-57
2022/04/01 02:44:12;;;;;;;3.80;3.27;;;;;;;;;;4935358;29;20222;-58
2022/04/01 02:46:39;;;;;;;0.93;0.90;;;;;;;;;;4947070;29;20207;-58
2022/04/01 02:49:08;;;;;;;5.93;4.53;;;;;;;;;;4951636;29;20230;-57
2022/04/01 02:51:37;;;;;;;7.83;2.10;;;;;;;;;;4946019;29;20613;-57
2022/04/01 02:54:05;;;;;;;1.17;1.10;;;;;;;;;;4934064;29;20215;-57
2022/04/01 02:56:33;;;;;;;2.57;2.37;;;;;;;;;;4950437;29;20273;-57
2022/04/01 02:59:00;;;;;;;1.47;1.47;;;;;;;;;;4949530;29;20617;-57
2022/04/01 03:01:27;;;;;;;5.37;4.17;;;;;;;;;;4941004;29;20222;-58
2022/04/01 03:03:54;;;;;;;4.37;3.97;;;;;;;;;;4943428;29;20217;-58
2022/04/01 03:06:21;;;;;;;2.27;2.17;;;;;;;;;;4948738;29;20238;-57
2022/04/01 03:08:50;;;;;;;6.03;3.93;;;;;;;;;;4952395;29;20218;-58
2022/04/01 03:11:17;;;;;;;4.57;3.73;;;;;;;;;;4947883;29;20301;-58
2022/04/01 03:13:44;;;;;;;0.70;0.70;;;;;;;;;;4937509;29;20327;-58
2022/04/01 03:16:12;;;;;;;3.47;2.30;;;;;;;;;;4946552;29;20211;-58
2022/04/01 03:18:40;;;;;;;5.67;4.40;;;;;;;;;;4933696;29;20219;-58
2022/04/01 03:21:08;;;;;;;1.67;1.67;;;;;;;;;;4932732;29;20232;-58
2022/04/01 03:23:35;;;;;;;3.07;2.33;;;;;;;;;;4936824;29;20714;-57
2022/04/01 03:26:04;;;;;;;4.80;3.47;;;;;;;;;;4950939;28;20293;-58
2022/04/01 03:28:31;;;;;;;2.60;2.40;;;;;;;;;;4917729;29;1021603;-57
2022/04/01 03:30:58;;;;;;;1.03;1.03;;;;;;;;;;4937092;29;20270;-57
2022/04/01 03:33:25;;;;;;;4.10;3.30;;;;;;;;;;4942937;29;20633;-58
2022/04/01 03:35:52;;;;;;;2.47;2.27;;;;;;;;;;4935899;29;20313;-58
2022/04/01 03:38:19;;;;;;;3.40;3.10;;;;;;;;;;4939002;29;20203;-58
2022/04/01 03:40:49;;;;;;;1.33;1.23;;;;;;;;;;4937361;29;20231;-58
2022/04/01 03:43:17;;;;;;;5.37;4.43;;;;;;;;;;4945078;29;20219;-58
2022/04/01 03:45:48;;;;;;;3.97;3.23;;;;;;;;;;4931788;29;20214;-58
2022/04/01 03:48:18;;;;;;;3.77;2.40;;;;;;;;;;4934359;29;20207;-58
2022/04/01 03:50:49;;;;;;;3.07;2.37;;;;;;;;;;4939306;29;20682;-58
2022/04/01 03:53:17;;;;;;;3.73;3.13;;;;;;;;;;4943933;29;20267;-57
2022/04/01 03:55:47;;;;;;;5.70;4.47;;;;;;;;;;4934620;29;20215;-58
2022/04/01 03:58:14;;;;;;;4.20;2.60;;;;;;;;;;4945856;29;20211;-58
2022/04/01 04:00:43;;;;;;;2.73;2.53;;;;;;;;;;4941242;29;20230;-57
2022/04/01 04:03:11;;;;;;;8.17;3.37;;;;;;;;;;4944854;29;20300;-58
2022/04/01 04:05:39;;;;;;;3.30;3.00;;;;;;;;;;4944478;29;20207;-58
2022/04/01 04:08:07;;;;;;;2.27;0.90;;;;;;;;;;4932175;29;20592;-57
2022/04/01 04:10:35;;;;;;;3.63;2.20;;;;;;;;;;4944334;29;20587;-57
2022/04/01 04:13:04;;;;;;;4.63;3.90;;;;;;;;;;4948874;28;20246;-57
2022/04/01 04:15:39;;;;;;;2.70;2.10;;;;;;;;;;4955037;28;20223;-58
2022/04/01 04:18:09;;;;;;;1.87;1.77;;;;;;;;;;4952054;29;20672;-58
2022/04/01 04:20:39;;;;;;;0.47;0.47;;;;;;;;;;4934525;29;20238;-58
2022/04/01 04:23:10;;;;;;;1.80;1.70;;;;;;;;;;4933394;29;20215;-58
2022/04/01 04:25:38;;;;;;;2.33;2.20;;;;;;;;;;4951017;29;20262;-58
2022/04/01 04:28:09;;;;;;;2.40;2.30;;;;;;;;;;4952400;29;20263;-57
2022/04/01 04:30:37;;;;;;;1.33;1.23;;;;;;;;;;4948540;29;20576;-57
2022/04/01 04:33:05;;;;;;;1.33;0.97;;;;;;;;;;4932964;29;20207;-58
2022/04/01 04:35:37;;;;;;;2.30;2.17;;;;;;;;;;4935087;29;20216;-58
2022/04/01 04:38:04;;;;;;;1.30;1.30;;;;;;;;;;4944370;28;20214;-57
2022/04/01 04:40:32;;;;;;;1.77;1.67;;;;;;;;;;4936598;29;20241;-58
2022/04/01 04:42:59;;;;;;;2.23;2.13;;;;;;;;;;4929430;29;20219;-58
2022/04/01 04:45:27;;;;;;;0.47;0.47;;;;;;;;;;4933326;29;20630;-58
2022/04/01 04:47:54;;;;;;;1.37;1.27;;;;;;;;;;4929515;29;20213;-59
2022/04/01 04:50:21;;;;;;;1.10;1.10;;;;;;;;;;4948062;29;20205;-58
2022/04/01 04:52:51;;;;;;;2.37;1.27;;;;;;;;;;4947900;29;20213;-58
2022/04/01 04:55:18;;;;;;;0.77;0.77;;;;;;;;;;4941207;29;20207;-58
2022/04/01 04:57:46;;;;;;;0.47;0.47;;;;;;;;;;4951886;29;20237;-58
2022/04/01 05:00:19;;;;;;;2.57;1.30;;;;;;;;;;4951747;29;20254;-58
2022/04/01 05:02:51;;;;;;;1.03;1.03;;;;;;;;;;4942716;29;20222;-58
2022/04/01 05:05:23;;;;;;;1.33;1.23;;;;;;;;;;4949494;29;20721;-58
2022/04/01 05:07:58;;;;;;;2.23;1.97;;;;;;;;;;4933652;29;20223;-59
2022/04/01 05:10:28;;;;;;;0.70;0.70;;;;;;;;;;4948453;29;20280;-57
2022/04/01 05:13:02;;;;;;;2.80;2.60;;;;;;;;;;4942073;29;20213;-58
2022/04/01 05:15:31;;;;;;;0.60;0.60;;;;;;;;;;4932649;29;20281;-58
2022/04/01 05:18:02;;;;;;;2.13;2.00;;;;;;;;;;4931448;29;20218;-58
2022/04/01 05:20:29;;;;;;;1.70;1.60;;;;;;;;;;4947245;29;20230;-58
2022/04/01 05:23:00;;;;;;;0.60;0.60;;;;;;;;;;4948342;29;20214;-57
2022/04/01 05:25:32;;;;;;;1.90;1.80;;;;;;;;;;4948735;29;20242;-59
2022/04/01 05:28:02;;;;;;;3.00;2.17;;;;;;;;;;4947190;29;20803;-58
2022/04/01 05:30:30;;;;;;;1.97;1.87;;;;;;;;;;4951069;29;20203;-58
2022/04/01 05:33:02;;;;;;;1.97;1.87;;;;;;;;;;4931736;29;20242;-58
2022/04/01 05:35:30;;;;;;;1.37;1.07;;;;;;;;;;4941375;29;20218;-58
2022/04/01 05:37:59;;;;;;;1.10;1.07;;;;;;;;;;4948020;29;20224;-57
2022/04/01 05:40:28;;;;;;;1.83;1.73;;;;;;;;;;4938373;29;20659;-58
2022/04/01 05:42:56;;;;;;;2.17;2.07;;;;;;;;;;4932196;29;20220;-57
2022/04/01 05:45:25;;;;;;;2.77;1.33;;;;;;;;;;4943389;29;20696;-58
2022/04/01 05:47:52;;;;;;;0.70;0.70;;;;;;;;;;4943253;29;20382;-57
2022/04/01 05:50:19;;;;;;;1.50;0.77;;;;;;;;;;4945765;29;20215;-57
2022/04/01 05:52:47;;;;;;;1.63;1.50;;;;;;;;;;4942144;29;20332;-57
2022/04/01 05:55:15;;;;;;;0.83;0.83;;;;;;;;;;4937068;29;20257;-59
2022/04/01 05:57:44;;;;;;;1.17;0.93;;;;;;;;;;4943986;29;20216;-57
2022/04/01 06:00:12;;;;;;;1.03;1.03;;;;;;;;;;4948042;29;20248;-57
2022/04/01 06:02:47;;;;;;;0.90;0.43;;;;;;;;;;4955593;28;20296;-57
2022/04/01 06:05:18;;;;;;;1.67;1.57;;;;;;;;;;4941353;28;20217;-59
2022/04/01 06:07:58;;;;;;;0.70;0.70;;;;;;;;;;4943996;29;20218;-58
2022/04/01 06:10:27;;;;;;;0.40;0.40;;;;;;;;;;4948862;29;20221;-57
2022/04/01 06:13:04;;;;;;;1.17;1.13;;;;;;;;;;4950894;29;20228;-57
2022/04/01 06:15:34;;;;;;;2.53;2.33;;;;;;;;;;4950698;29;20219;-57
2022/04/01 06:18:06;;;;;;;0.47;0.47;;;;;;;;;;4934387;29;20268;-57
2022/04/01 06:20:34;;;;;;;0.90;0.87;;;;;;;;;;4950784;29;20684;-56
2022/04/01 06:23:06;;;;;;;1.07;1.07;;;;;;;;;;4948830;29;20751;-58
2022/04/01 06:25:35;;;;;;;1.30;1.30;;;;;;;;;;4949965;29;20230;-57
2022/04/01 06:28:09;;;;;;;1.23;1.23;;;;;;;;;;4934125;29;20243;-57
2022/04/01 06:30:38;;;;;;;1.77;1.50;;;;;;;;;;4949528;29;20201;-58
2022/04/01 06:33:08;;;;;;;4.23;3.00;;;;;;;;;;4948253;29;20308;-58
2022/04/01 06:35:41;;;;;;;2.13;2.03;;;;;;;;;;4948858;29;20232;-57
2022/04/01 06:38:09;;;;;;;1.17;1.00;;;;;;;;;;4947128;29;20312;-57
2022/04/01 06:40:42;;;;;;;1.67;1.63;;;;;;;;;;4948874;29;20245;-58
2022/04/01 06:43:10;;;;;;;2.90;2.70;;;;;;;;;;4949039;29;20758;-58
2022/04/01 06:45:39;;;;;;;1.60;1.50;;;;;;;;;;4947055;29;20704;-58
2022/04/01 06:48:07;;;;;;;4.13;2.07;;;;;;;;;;4935947;29;20301;-56
2022/04/01 06:50:34;;;;;;;0.93;0.93;;;;;;;;;;4943150;29;20264;-56
2022/04/01 06:53:01;;;;;;;4.53;1.60;;;;;;;;;;4948342;29;20381;-56
2022/04/01 06:55:28;;;;;;;1.83;1.77;;;;;;;;;;4950062;29;20210;-57
2022/04/01 06:57:55;;;;;;;2.10;1.90;;;;;;;;;;4937604;29;20215;-56
2022/04/01 07:00:26;;;;;;;3.50;2.63;;;;;;;;;;4931311;29;20233;-57
2022/04/01 07:02:53;;;;;;;2.53;2.30;;;;;;;;;;4933693;29;20921;-57
2022/04/01 07:05:20;;;;;;;1.03;1.03;;;;;;;;;;4935740;29;20222;-56
2022/04/01 07:07:47;;;;;;;0.67;0.67;;;;;;;;;;4942125;29;20677;-57
2022/04/01 07:10:14;;;;;;;2.03;1.40;;;;;;;;;;4954208;29;20218;-57
2022/04/01 07:12:41;;;;;;;5.53;2.37;;;;;;;;;;4951436;29;20224;-58
2022/04/01 07:15:10;;;;;;;3.40;0.63;;;;;;;;;;4935097;29;20671;-58
2022/04/01 07:17:39;;;;;;;1.27;1.27;;;;;;;;;;4948990;29;20320;-58
2022/04/01 07:20:06;;;;;;;1.43;1.33;;;;;;;;;;4953192;29;20673;-56
2022/04/01 07:22:36;;;;;;;1.97;1.80;;;;;;;;;;4953791;29;20637;-58
2022/04/01 07:25:03;;;;;;;1.10;1.10;;;;;;;;;;4952796;29;20264;-57
2022/04/01 07:27:30;;;;;;;2.03;1.87;;;;;;;;;;4953031;29;20286;-59
2022/04/01 07:29:57;;;;;;;0.93;0.93;;;;;;;;;;4951141;29;20304;-58
2022/04/01 07:32:32;;;;;;;4.37;2.20;;;;;;;;;;4950700;29;20214;-59
2022/04/01 07:35:00;;;;;;;2.67;2.27;;;;;;;;;;4948575;29;20557;-59
2022/04/01 07:37:28;;;;;;;2.17;1.97;;;;;;;;;;4953623;29;20569;-58
2022/04/01 07:39:57;;;;;;;1.30;1.17;;;;;;;;;;4953148;29;20211;-57
2022/04/01 07:42:24;;;;;;;0.63;0.50;;;;;;;;;;4950531;29;20651;-57
2022/04/01 07:44:51;;;;;;;1.17;1.07;;;;;;;;;;4952492;29;20213;-57
2022/04/01 07:47:19;;;;;;;1.27;1.27;;;;;;;;;;4952691;29;20222;-57
2022/04/01 07:49:46;;;;;;;1.20;1.20;;;;;;;;;;4950635;29;20209;-56
2022/04/01 07:52:15;;;;;;;1.03;0.90;;;;;;;;;;4941624;29;20214;-57
2022/04/01 07:54:43;;;;;;;0.70;0.70;;;;;;;;;;4947488;29;20211;-57
2022/04/01 07:57:11;;;;;;;0.83;0.83;;;;;;;;;;4948910;28;20225;-56
2022/04/01 07:59:39;;;;;;;1.00;1.00;;;;;;;;;;4972186;28;20222;-58
2022/04/01 08:02:06;;;;;;;1.30;1.20;;;;;;;;;;4953669;28;20233;-59
2022/04/01 08:04:33;;;;;;;2.53;1.00;;;;;;;;;;4952269;29;20307;-58
2022/04/01 08:07:00;;;;;;;3.10;1.93;;;;;;;;;;4953045;29;20218;-57
2022/04/01 08:09:29;;;;;;;1.87;1.10;;;;;;;;;;4953134;29;20270;-57
2022/04/01 08:11:56;;;;;;;0.87;0.87;;;;;;;;;;4950614;29;20265;-57
2022/04/01 08:14:23;;;;;;;7.03;1.63;;;;;;;;;;4943325;28;20296;-58
2022/04/01 08:16:51;;;;;;;3.33;2.90;;;;;;;;;;4949830;29;20312;-57
2022/04/01 08:19:18;;;;;;;0.37;0.37;;;;;;;;;;4950337;29;20360;-58
2022/04/01 08:21:45;;;;;;;0.53;0.50;;;;;;;;;;4950132;29;20295;-58
2022/04/01 08:24:12;;;;;;;1.13;1.07;;;;;;;;;;4949187;29;20694;-57
2022/04/01 08:26:41;;;;;;;1.13;1.03;;;;;;;;;;4951323;29;20332;-58
2022/04/01 08:29:08;;;;;;;0.50;0.50;;;;;;;;;;4942450;29;20213;-57
2022/04/01 08:31:36;;;;;;;0.53;0.43;;;;;;;;;;4939648;29;20218;-59
2022/04/01 08:34:03;;;;;;;1.43;1.33;;;;;;;;;;4946745;29;20203;-59
2022/04/01 08:36:30;;;;;;;0.93;0.60;;;;;;;;;;4949064;29;20297;-58
2022/04/01 08:38:57;;;;;;;1.07;1.07;;;;;;;;;;4941162;29;20218;-58
2022/04/01 08:41:24;;;;;;;1.23;1.17;;;;;;;;;;4951479;29;20581;-59
2022/04/01 08:43:54;;;;;;;0.93;0.93;;;;;;;;;;4950364;29;20693;-58
2022/04/01 08:46:21;;;;;;;1.43;1.33;;;;;;;;;;4950837;29;20214;-58
2022/04/01 08:48:48;;;;;;;1.37;1.27;;;;;;;;;;4951501;29;20214;-56
2022/04/01 08:51:16;;;;;;;0.50;0.50;;;;;;;;;;4940149;29;20217;-58
2022/04/01 08:53:44;;;;;;;3.93;0.77;;;;;;;;;;4932428;29;20220;-58
2022/04/01 08:56:12;;;;;;;1.23;0.83;;;;;;;;;;4949549;29;20214;-58
2022/04/01 08:58:39;;;;;;;4.10;2.50;;;;;;;;;;4950887;29;20755;-58
2022/04/01 09:01:07;;;;;;;0.93;0.87;;;;;;;;;;4951098;29;20228;-58
2022/04/01 09:03:35;;;;;;;0.20;0.20;;;;;;;;;;4942285;29;20210;-59
2022/04/01 09:06:03;;;;;;;6.40;1.20;;;;;;;;;;4945482;29;20213;-58
2022/04/01 09:08:32;;;;;;;0.10;0.10;;;;;;;;;;4950983;29;20218;-58
2022/04/01 09:11:02;;;;;;;1.10;1.00;;;;;;;;;;4951087;29;20213;-58
2022/04/01 09:13:30;;;;;;;2.43;2.00;;;;;;;;;;4950970;29;20228;-58
2022/04/01 09:15:58;;;;;;;0.77;0.77;;;;;;;;;;4950867;29;20211;-58
2022/04/01 09:18:39;;;;;;;0.73;0.73;;;;;;;;;;4951570;29;20209;-58
2022/04/01 09:21:08;;;;;;;0.80;0.57;;;;;;;;;;4949077;29;20324;-58
2022/04/01 09:23:35;;;;;;;0.70;0.43;;;;;;;;;;4951518;29;20286;-59
2022/04/01 09:26:03;;;;;;;0.90;0.90;;;;;;;;;;4950204;28;20260;-58
2022/04/01 09:28:30;;;;;;;1.73;1.03;;;;;;;;;;4950893;29;20304;-58
2022/04/01 09:30:59;;;;;;;1.47;1.47;;;;;;;;;;4951217;29;20694;-58
2022/04/01 09:33:29;;;;;;;2.43;1.10;;;;;;;;;;4949146;29;20289;-58
2022/04/01 09:36:03;;;;;;;2.10;1.43;;;;;;;;;;4946592;29;20223;-58
2022/04/01 09:38:30;;;;;;;0.73;0.73;;;;;;;;;;4932558;29;20208;-58
2022/04/01 09:41:02;;;;;;;0.60;0.50;;;;;;;;;;4932121;29;20759;-59
2022/04/01 09:43:29;;;;;;;0.83;0.70;;;;;;;;;;4934047;29;20218;-58
2022/04/01 09:45:56;;;;;;;1.07;0.70;;;;;;;;;;4947264;29;20587;-58
2022/04/01 09:48:23;;;;;;;1.23;1.10;;;;;;;;;;4942159;29;20212;-58
2022/04/01 09:50:59;;;;;;;1.93;1.83;;;;;;;;;;4946566;29;20218;-58
2022/04/01 09:53:28;;;;;;;0.33;0.33;;;;;;;;;;4950387;29;20255;-58
2022/04/01 09:55:55;;;;;;;0.73;0.73;;;;;;;;;;4949949;29;20213;-57
2022/04/01 09:58:23;;;;;;;0.43;0.43;;;;;;;;;;4949899;29;20360;-57
2022/04/01 10:00:51;;;;;;;1.23;1.23;;;;;;;;;;4942582;29;20228;-58
2022/04/01 10:03:19;;;;;;;0.50;0.50;;;;;;;;;;4949875;28;20215;-58
2022/04/01 10:05:46;;;;;;;0.57;0.57;;;;;;;;;;4934071;29;20219;-59
2022/04/01 10:08:14;;;;;;;2.60;0.40;;;;;;;;;;4942823;29;20560;-62
2022/04/01 10:10:42;;;;;;;0.67;0.67;;;;;;;;;;4937089;29;20214;-58
2022/04/01 10:13:11;;;;;;;1.03;0.93;;;;;;;;;;4937095;29;20221;-61
2022/04/01 10:15:38;;;;;;;1.97;1.40;;;;;;;;;;4947069;29;20604;-60
2022/04/01 10:18:06;;;;;;;1.40;1.23;;;;;;;;;;4937180;29;20607;-61
2022/04/01 10:20:34;;;;;;;1.23;1.23;;;;;;;;;;4948619;29;20335;-61
2022/04/01 10:23:03;;;;;;;1.57;1.47;;;;;;;;;;4949082;29;20261;-61
2022/04/01 10:25:33;;;;;;;0.87;0.87;;;;;;;;;;4937656;29;20260;-61
2022/04/01 10:28:02;;;;;;;0.63;0.63;;;;;;;;;;4936945;29;20284;-61
2022/04/01 10:30:31;;;;;;;1.80;1.70;;;;;;;;;;4943205;29;20692;-61
2022/04/01 10:32:59;;;;;;;1.00;1.00;;;;;;;;;;4942299;29;20551;-65
2022/04/01 10:35:26;;;;;;;1.23;1.23;;;;;;;;;;4940770;29;20216;-64
2022/04/01 10:37:55;;;;;;;1.80;0.70;;;;;;;;;;4936380;29;20222;-64
2022/04/01 10:40:22;;;;;;;1.67;1.60;;;;;;;;;;4940014;29;21006;-64
2022/04/01 10:42:51;;;;;;;1.03;0.97;;;;;;;;;;4947252;29;20241;-66
2022/04/01 10:45:26;;;;;;;1.43;1.33;;;;;;;;;;4964232;28;20217;-66
2022/04/01 10:53:38;;;;;;;0.83;0.60;;;;;;;;;;4965829;28;20274;-58
2022/04/01 10:56:23;;;;;;;2.47;2.37;;;;;;;;;;4950173;29;20212;-59
2022/04/01 10:59:03;;;;;;;1.67;1.60;;;;;;;;;;4938215;29;20667;-59
2022/04/01 11:01:30;;;;;;;2.43;0.60;;;;;;;;;;4947844;29;20234;-58
2022/04/01 11:04:02;;;;;;;2.00;1.90;;;;;;;;;;4941448;29;20217;-59
2022/04/01 11:06:29;;;;;;;0.70;0.70;;;;;;;;;;4940435;29;20301;-59
2022/04/01 11:08:56;;;;;;;1.77;1.67;;;;;;;;;;4932114;29;20206;-60
2022/04/01 11:11:23;;;;;;;2.07;1.87;;;;;;;;;;4931022;29;20206;-60
2022/04/01 11:14:04;;;;;;;1.50;1.40;;;;;;;;;;4939515;29;20217;-60
2022/04/01 11:16:46;;;;;;;1.67;1.60;;;;;;;;;;4946460;29;20628;-60
2022/04/01 11:19:17;;;;;;;1.00;1.00;;;;;;;;;;4947031;29;20241;-60
2022/04/01 11:21:45;;;;;;;1.07;1.07;;;;;;;;;;4949048;29;20249;-60
2022/04/01 11:24:25;;;;;;;0.83;0.83;;;;;;;;;;4941883;29;20211;-60
2022/04/01 11:26:52;;;;;;;0.90;0.90;;;;;;;;;;4933306;29;20252;-59
2022/04/01 11:29:22;;;;;;;0.77;0.77;;;;;;;;;;4941052;29;20250;-59
2022/04/01 11:31:49;;;;;;;3.47;2.00;;;;;;;;;;4948114;29;20206;-59
2022/04/01 11:34:16;;;;;;;0.97;0.97;;;;;;;;;;4947137;29;20214;-59
2022/04/01 11:36:43;;;;;;;0.33;0.33;;;;;;;;;;4948303;29;20219;-59
2022/04/01 11:39:16;;;;;;;1.63;1.53;;;;;;;;;;4944527;29;20211;-61
2022/04/01 11:41:54;;;;;;;1.40;1.33;;;;;;;;;;4948746;29;20240;-61
2022/04/01 11:44:23;;;;;;;0.37;0.37;;;;;;;;;;4946929;29;20213;-61
2022/04/01 11:46:51;;;;;;;1.00;1.00;;;;;;;;;;4929595;29;20301;-61
2022/04/01 11:49:18;;;;;;;0.93;0.93;;;;;;;;;;4945925;29;20214;-61
2022/04/01 11:51:45;;;;;;;0.80;0.80;;;;;;;;;;4947748;29;20210;-61
2022/04/01 11:54:13;;;;;;;0.47;0.40;;;;;;;;;;4931147;29;20211;-61
2022/04/01 11:56:40;;;;;;;1.17;1.17;;;;;;;;;;4934233;29;20215;-61
2022/04/01 11:59:08;;;;;;;1.17;1.17;;;;;;;;;;4934402;29;20481;-61
2022/04/01 12:01:54;;;;;;;0.77;0.77;;;;;;;;;;4928716;29;20236;-61
2022/04/01 12:04:27;;;;;;;0.33;0.33;;;;;;;;;;4930288;29;20220;-61
2022/04/01 12:09:39;;;;;;;0.97;0.97;;;;;;;;;;4928621;29;20215;-61
2022/04/01 12:12:07;;;;;;;0.10;0.10;;;;;;;;;;4928802;29;20215;-61
2022/04/01 12:14:34;;;;;;;3.20;2.90;;;;;;;;;;4928856;29;20226;-61
2022/04/01 12:17:07;;;;;;;0.80;0.80;;;;;;;;;;4928795;29;20734;-61
2022/04/01 12:19:34;;;;;;;1.40;1.30;;;;;;;;;;4942181;29;20213;-61
2022/04/01 12:22:01;;;;;;;2.03;0.93;;;;;;;;;;4947708;29;20565;-61
2022/04/01 12:24:29;;;;;;;0.50;0.50;;;;;;;;;;4947713;29;20782;-60
2022/04/01 12:26:56;;;;;;;1.40;1.30;;;;;;;;;;4947075;29;20295;-61
2022/04/01 12:29:24;;;;;;;1.27;1.20;;;;;;;;;;4937131;29;20308;-60
2022/04/01 12:31:52;;;;;;;1.43;1.33;;;;;;;;;;4937065;29;20220;-60
2022/04/01 12:34:21;;;;;;;1.80;1.20;;;;;;;;;;4944457;29;20216;-60
2022/04/01 12:36:52;;;;;;;1.77;1.67;;;;;;;;;;4940073;29;21819;-59
2022/04/01 12:39:19;;;;;;;1.17;1.03;;;;;;;;;;4948278;29;20274;-60
2022/04/01 12:41:50;;;;;;;0.50;0.50;;;;;;;;;;4944054;29;20228;-59
2022/04/01 12:44:17;;;;;;;0.23;0.23;;;;;;;;;;4948273;29;20223;-59
2022/04/01 12:46:48;;;;;;;1.57;1.47;;;;;;;;;;4943842;29;20206;-62
2022/04/01 12:49:15;;;;;;;0.53;0.53;;;;;;;;;;4942125;29;20252;-61
2022/04/01 12:51:51;;;;;;;1.30;0.60;;;;;;;;;;4942566;29;20213;-60
2022/04/01 12:54:25;;;;;;;4.47;2.20;;;;;;;;;;4944996;29;20212;-60
2022/04/01 12:56:52;;;;;;;2.40;2.20;;;;;;;;;;4942682;29;20632;-60
2022/04/01 12:59:21;;;;;;;0.70;0.70;;;;;;;;;;4929443;29;20252;-61
2022/04/01 13:01:58;;;;;;;1.87;1.73;;;;;;;;;;4931275;29;20229;-60
2022/04/01 13:04:25;;;;;;;0.50;0.50;;;;;;;;;;4947759;29;20219;-63
2022/04/01 13:07:13;;;;;;;2.13;2.03;;;;;;;;;;4945913;29;20211;-60
2022/04/01 13:09:47;;;;;;;0.67;0.67;;;;;;;;;;4945930;29;20221;-60
2022/04/01 13:12:14;;;;;;;1.40;1.30;;;;;;;;;;4945177;28;20234;-60
2022/04/01 13:14:41;;;;;;;0.73;0.73;;;;;;;;;;4937079;29;20682;-59
2022/04/01 13:17:13;;;;;;;0.50;0.50;;;;;;;;;;4942957;29;20218;-59
2022/04/01 13:19:47;;;;;;;1.70;1.17;;;;;;;;;;4945091;29;20215;-60
2022/04/01 13:22:15;;;;;;;0.80;0.80;;;;;;;;;;4944172;29;20233;-58
2022/04/01 13:24:43;;;;;;;1.63;1.53;;;;;;;;;;4946694;29;20215;-58
2022/04/01 13:27:11;;;;;;;1.60;1.27;;;;;;;;;;4944367;29;20652;-58
2022/04/01 13:29:38;;;;;;;1.93;1.83;;;;;;;;;;4944151;29;20216;-58
2022/04/01 13:32:06;;;;;;;4.43;2.00;;;;;;;;;;4934147;29;20213;-59
2022/04/01 13:34:33;;;;;;;0.43;0.43;;;;;;;;;;4938927;29;20237;-61
2022/04/01 13:37:00;;;;;;;1.23;1.17;;;;;;;;;;4933375;29;20679;-59
2022/04/01 13:39:29;;;;;;;0.40;0.40;;;;;;;;;;4943916;29;20222;-59
2022/04/01 13:41:57;;;;;;;1.00;1.00;;;;;;;;;;4932483;29;20208;-59
2022/04/01 13:44:25;;;;;;;4.13;1.97;;;;;;;;;;4933970;29;20299;-58
2022/04/01 13:46:52;;;;;;;0.43;0.43;;;;;;;;;;4928210;29;20215;-59
2022/04/01 13:49:19;;;;;;;1.27;1.27;;;;;;;;;;4930612;29;20208;-59
2022/04/01 13:51:46;;;;;;;2.37;0.83;;;;;;;;;;4927848;29;20246;-58
2022/04/01 13:54:13;;;;;;;1.00;0.57;;;;;;;;;;4935549;29;20623;-58
2022/04/01 13:56:42;;;;;;;0.50;0.50;;;;;;;;;;4932466;29;20253;-58
2022/04/01 13:59:09;;;;;;;0.53;0.53;;;;;;;;;;4935524;29;20786;-59
2022/04/01 14:01:36;;;;;;;0.30;0.30;;;;;;;;;;4936798;28;20254;-58
2022/04/01 14:04:03;;;;;;;0.93;0.80;;;;;;;;;;4946133;29;20235;-59
2022/04/01 14:06:32;;;;;;;3.90;1.33;;;;;;;;;;4946058;29;20211;-60
2022/04/01 14:08:59;;;;;;;1.07;0.37;;;;;;;;;;4943975;29;20764;-59
2022/04/01 14:11:26;;;;;;;0.20;0.20;;;;;;;;;;4947486;28;20297;-59
2022/04/01 14:13:54;;;;;;;0.30;0.30;;;;;;;;;;4943498;29;20330;-59
2022/04/01 14:16:21;;;;;;;0.90;0.90;;;;;;;;;;4945394;29;20214;-59
2022/04/01 14:18:49;;;;;;;1.17;1.10;;;;;;;;;;4931681;29;20222;-59
2022/04/01 14:21:21;;;;;;;0.87;0.87;;;;;;;;;;4945010;29;20242;-60
2022/04/01 14:23:48;;;;;;;0.80;0.80;;;;;;;;;;4941961;29;20234;-60
2022/04/01 14:26:15;;;;;;;0.30;0.30;;;;;;;;;;4934026;29;20282;-60
2022/04/01 14:28:42;;;;;;;2.73;0.80;;;;;;;;;;4947240;29;20249;-59
2022/04/01 14:31:10;;;;;;;1.27;1.27;;;;;;;;;;4940736;29;20234;-60
2022/04/01 14:33:37;;;;;;;1.27;1.17;;;;;;;;;;4943983;29;20219;-60
2022/04/01 14:36:05;;;;;;;1.17;1.13;;;;;;;;;;4934788;29;20219;-59
2022/04/01 14:38:32;;;;;;;1.60;1.47;;;;;;;;;;4946247;29;20246;-59
2022/04/01 14:40:59;;;;;;;0.57;0.57;;;;;;;;;;4932507;29;20219;-58
2022/04/01 14:43:26;;;;;;;1.80;1.23;;;;;;;;;;4938682;29;20238;-59
2022/04/01 14:45:53;;;;;;;2.37;2.00;;;;;;;;;;4943794;29;20254;-59
2022/04/01 14:48:21;;;;;;;1.57;1.50;;;;;;;;;;4933546;29;20219;-59
2022/04/01 14:50:48;;;;;;;0.43;0.43;;;;;;;;;;4936789;29;20217;-59
2022/04/01 14:53:17;;;;;;;2.90;1.47;;;;;;;;;;4941355;29;20277;-58
2022/04/01 14:55:44;;;;;;;0.50;0.50;;;;;;;;;;4942848;29;20211;-59
2022/04/01 14:58:11;;;;;;;0.83;0.83;;;;;;;;;;4933217;29;20220;-59
2022/04/01 15:00:38;;;;;;;2.17;2.00;;;;;;;;;;4930795;29;20224;-59
2022/04/01 15:03:05;;;;;;;1.27;1.17;;;;;;;;;;4939648;29;20245;-59
2022/04/01 15:05:35;;;;;;;2.77;2.67;;;;;;;;;;4935219;29;20686;-59
2022/04/01 15:08:02;;;;;;;1.07;1.00;;;;;;;;;;4949497;29;20427;-59